createdAt,value
2024-02-29T00:00:55.474Z,7.97
2024-02-29T00:01:58.932Z,7.98
2024-02-29T00:03:01.829Z,8.00
2024-02-29T00:04:05.013Z,7.98
2024-02-29T00:05:12.825Z,7.97
2024-02-29T00:06:15.807Z,7.97
2024-02-29T00:07:19.002Z,7.95
2024-02-29T00:08:22.631Z,7.94
2024-02-29T00:09:25.448Z,7.94
2024-02-29T00:10:28.538Z,7.87
2024-02-29T00:11:31.339Z,7.87
2024-02-29T00:12:35.181Z,7.83
2024-02-29T00:13:38.137Z,7.53
2024-02-29T00:14:42.630Z,7.85
2024-02-29T00:15:46.171Z,7.86
2024-02-29T00:16:49.253Z,7.84
2024-02-29T00:17:52.512Z,7.77
2024-02-29T00:18:55.418Z,7.84
2024-02-29T00:19:58.382Z,7.84
2024-02-29T00:21:01.980Z,7.89
2024-02-29T00:22:04.894Z,7.87
2024-02-29T00:23:07.844Z,7.89
2024-02-29T00:24:10.872Z,7.84
2024-02-29T00:25:13.503Z,7.87
2024-02-29T00:26:16.163Z,7.85
2024-02-29T00:27:19.809Z,7.81
2024-02-29T00:28:22.675Z,7.73
2024-02-29T00:29:28.234Z,7.67
2024-02-29T00:30:31.218Z,7.66
2024-02-29T00:31:34.582Z,7.65
2024-02-29T00:32:37.396Z,7.65
2024-02-29T00:33:41.388Z,7.63
2024-02-29T00:34:44.441Z,7.63
2024-02-29T00:35:49.591Z,7.63
2024-02-29T00:36:52.817Z,7.65
2024-02-29T00:37:55.817Z,7.64
2024-02-29T00:39:06.062Z,7.64
2024-02-29T00:40:16.094Z,7.61
2024-02-29T00:41:18.751Z,7.60
2024-02-29T00:42:21.651Z,7.61
2024-02-29T00:43:24.627Z,7.62
2024-02-29T00:44:27.598Z,7.60
2024-02-29T00:45:30.548Z,7.63
2024-02-29T00:46:33.568Z,7.67
2024-02-29T00:47:36.169Z,7.65
2024-02-29T00:48:38.842Z,7.64
2024-02-29T00:49:42.685Z,7.63
2024-02-29T00:50:45.621Z,7.66
2024-02-29T00:51:49.117Z,7.66
2024-02-29T00:52:52.127Z,7.69
2024-02-29T00:53:54.970Z,7.69
2024-02-29T00:54:58.273Z,7.69
2024-02-29T00:56:00.978Z,7.63
2024-02-29T00:57:04.096Z,7.64
2024-02-29T00:58:07.033Z,7.62
2024-02-29T00:59:11.949Z,7.54
2024-02-29T01:00:15.330Z,7.57
2024-02-29T01:01:18.666Z,7.58
2024-02-29T01:02:21.776Z,7.57
2024-02-29T01:03:24.788Z,7.58
2024-02-29T01:04:27.662Z,7.42
2024-02-29T01:05:30.575Z,7.58
2024-02-29T01:06:33.198Z,7.54
2024-02-29T01:07:37.718Z,7.54
2024-02-29T01:08:40.668Z,7.53
2024-02-29T01:09:43.421Z,7.53
2024-02-29T01:10:47.910Z,7.52
2024-02-29T01:11:50.530Z,7.54
2024-02-29T01:12:53.222Z,7.52
2024-02-29T01:13:56.109Z,7.54
2024-02-29T01:14:58.795Z,7.50
2024-02-29T01:16:01.839Z,7.47
2024-02-29T01:17:04.841Z,7.43
2024-02-29T01:18:08.604Z,7.41
2024-02-29T01:19:11.305Z,7.38
2024-02-29T01:20:14.199Z,7.34
2024-02-29T01:21:17.152Z,7.35
2024-02-29T01:22:20.108Z,7.31
2024-02-29T01:23:23.087Z,7.34
2024-02-29T01:24:25.987Z,7.30
2024-02-29T01:25:28.867Z,7.30
2024-02-29T01:26:34.336Z,7.30
2024-02-29T01:27:37.118Z,7.29
2024-02-29T01:28:39.949Z,7.30
2024-02-29T01:29:43.594Z,7.34
2024-02-29T01:30:46.216Z,7.35
2024-02-29T01:31:49.947Z,7.34
2024-02-29T01:32:52.795Z,7.25
2024-02-29T01:33:55.789Z,7.38
2024-02-29T01:34:58.793Z,7.11
2024-02-29T01:36:01.663Z,7.37
2024-02-29T01:37:05.078Z,7.39
2024-02-29T01:38:07.982Z,7.35
2024-02-29T01:39:10.781Z,7.30
2024-02-29T01:40:16.606Z,7.30
2024-02-29T01:41:19.905Z,7.25
2024-02-29T01:42:23.031Z,7.29
2024-02-29T01:43:25.952Z,7.30
2024-02-29T01:44:29.118Z,7.31
2024-02-29T01:45:31.780Z,7.32
2024-02-29T01:46:34.695Z,7.32
2024-02-29T01:47:37.940Z,7.22
2024-02-29T01:48:42.260Z,7.30
2024-02-29T01:49:47.602Z,7.30
2024-02-29T01:50:50.331Z,7.29
2024-02-29T01:51:54.225Z,7.28
2024-02-29T01:52:57.418Z,7.30
2024-02-29T01:54:00.318Z,7.32
2024-02-29T01:55:04.751Z,7.28
2024-02-29T01:56:08.298Z,7.32
2024-02-29T01:57:11.686Z,7.35
2024-02-29T01:58:14.856Z,7.36
2024-02-29T01:59:18.590Z,7.32
2024-02-29T02:00:21.321Z,7.29
2024-02-29T02:01:25.223Z,7.29
2024-02-29T02:02:28.143Z,7.25
2024-02-29T02:03:31.072Z,7.20
2024-02-29T02:04:34.013Z,7.07
2024-02-29T02:05:36.979Z,7.09
2024-02-29T02:06:41.198Z,7.07
2024-02-29T02:07:46.594Z,7.06
2024-02-29T02:08:49.296Z,7.11
2024-02-29T02:09:52.275Z,7.17
2024-02-29T02:10:55.229Z,7.15
2024-02-29T02:11:58.365Z,7.12
2024-02-29T02:13:01.476Z,7.09
2024-02-29T02:14:05.461Z,7.11
2024-02-29T02:15:08.880Z,7.10
2024-02-29T02:16:12.473Z,7.11
2024-02-29T02:17:15.456Z,7.11
2024-02-29T02:18:18.409Z,7.07
2024-02-29T02:19:21.017Z,7.10
2024-02-29T02:20:25.086Z,7.14
2024-02-29T02:21:27.926Z,7.12
2024-02-29T02:22:31.482Z,7.12
2024-02-29T02:23:34.189Z,7.11
2024-02-29T02:24:37.611Z,7.06
2024-02-29T02:25:40.526Z,7.06
2024-02-29T02:26:43.496Z,7.05
2024-02-29T02:27:46.534Z,7.07
2024-02-29T02:28:49.612Z,7.05
2024-02-29T02:29:52.312Z,7.07
2024-02-29T02:30:55.224Z,7.06
2024-02-29T02:31:57.968Z,7.02
2024-02-29T02:33:01.223Z,7.05
2024-02-29T02:34:04.836Z,7.03
2024-02-29T02:35:08.330Z,7.04
2024-02-29T02:36:11.300Z,7.03
2024-02-29T02:37:14.318Z,7.05
2024-02-29T02:38:17.819Z,7.08
2024-02-29T02:39:20.515Z,7.04
2024-02-29T02:40:23.807Z,7.07
2024-02-29T02:41:26.736Z,7.11
2024-02-29T02:42:29.663Z,7.12
2024-02-29T02:43:32.874Z,7.15
2024-02-29T02:44:35.741Z,7.12
2024-02-29T02:45:38.400Z,7.09
2024-02-29T02:46:41.058Z,7.03
2024-02-29T02:47:43.764Z,6.99
2024-02-29T02:48:46.997Z,7.06
2024-02-29T02:49:49.869Z,7.07
2024-02-29T02:50:53.257Z,7.08
2024-02-29T02:51:56.224Z,7.08
2024-02-29T02:52:58.945Z,7.08
2024-02-29T02:54:02.113Z,7.08
2024-02-29T02:55:05.798Z,7.10
2024-02-29T02:56:08.532Z,7.09
2024-02-29T02:57:11.457Z,7.07
2024-02-29T02:58:14.162Z,7.05
2024-02-29T02:59:17.920Z,6.99
2024-02-29T03:00:20.984Z,6.97
2024-02-29T03:01:24.030Z,7.01
2024-02-29T03:02:26.728Z,7.02
2024-02-29T03:03:29.630Z,7.00
2024-02-29T03:04:32.622Z,6.99
2024-02-29T03:05:35.538Z,6.98
2024-02-29T03:06:38.490Z,6.44
2024-02-29T03:07:41.553Z,6.99
2024-02-29T03:08:44.258Z,6.98
2024-02-29T03:09:48.014Z,6.96
2024-02-29T03:10:50.918Z,6.96
2024-02-29T03:11:53.787Z,6.96
2024-02-29T03:12:56.723Z,6.91
2024-02-29T03:13:59.690Z,6.90
2024-02-29T03:15:02.932Z,6.89
2024-02-29T03:16:05.892Z,6.87
2024-02-29T03:17:09.400Z,6.85
2024-02-29T03:18:12.403Z,6.87
2024-02-29T03:19:15.221Z,6.85
2024-02-29T03:20:18.610Z,6.87
2024-02-29T03:21:21.237Z,6.86
2024-02-29T03:22:24.270Z,6.84
2024-02-29T03:23:26.919Z,6.81
2024-02-29T03:24:29.894Z,6.77
2024-02-29T03:25:33.100Z,6.75
2024-02-29T03:26:35.966Z,6.74
2024-02-29T03:27:38.600Z,6.71
2024-02-29T03:28:41.475Z,6.69
2024-02-29T03:29:44.629Z,6.69
2024-02-29T03:30:47.758Z,6.69
2024-02-29T03:31:51.086Z,6.67
2024-02-29T03:32:55.059Z,6.69
2024-02-29T03:33:58.102Z,6.68
2024-02-29T03:35:02.891Z,6.69
2024-02-29T03:36:06.023Z,6.69
2024-02-29T03:37:09.462Z,6.66
2024-02-29T03:38:12.813Z,6.66
2024-02-29T03:39:15.804Z,6.60
2024-02-29T03:40:18.695Z,6.63
2024-02-29T03:41:21.657Z,6.64
2024-02-29T03:42:24.247Z,6.70
2024-02-29T03:43:27.304Z,6.67
2024-02-29T03:44:30.198Z,6.67
2024-02-29T03:45:33.143Z,6.63
2024-02-29T03:46:36.150Z,6.65
2024-02-29T03:47:39.849Z,6.66
2024-02-29T03:48:42.721Z,6.76
2024-02-29T03:49:45.541Z,6.76
2024-02-29T03:50:48.182Z,6.76
2024-02-29T03:51:51.982Z,6.71
2024-02-29T03:52:54.917Z,6.70
2024-02-29T03:53:58.112Z,6.61
2024-02-29T03:55:00.762Z,6.66
2024-02-29T03:56:04.287Z,6.67
2024-02-29T03:57:07.483Z,6.67
2024-02-29T03:58:10.459Z,6.67
2024-02-29T03:59:13.506Z,6.68
2024-02-29T04:00:17.010Z,6.73
2024-02-29T04:01:20.385Z,6.74
2024-02-29T04:02:24.220Z,6.73
2024-02-29T04:03:27.050Z,6.67
2024-02-29T04:04:30.836Z,6.65
2024-02-29T04:05:33.645Z,6.59
2024-02-29T04:06:36.517Z,6.60
2024-02-29T04:07:42.996Z,6.51
2024-02-29T04:08:46.331Z,6.53
2024-02-29T04:09:49.186Z,6.20
2024-02-29T04:10:52.214Z,6.47
2024-02-29T04:11:55.359Z,6.44
2024-02-29T04:12:59.107Z,6.45
2024-02-29T04:14:02.033Z,6.45
2024-02-29T04:15:05.408Z,6.40
2024-02-29T04:16:08.718Z,6.46
2024-02-29T04:17:11.893Z,6.43
2024-02-29T04:18:14.557Z,6.43
2024-02-29T04:19:18.000Z,6.42
2024-02-29T04:20:21.241Z,6.43
2024-02-29T04:21:24.116Z,6.43
2024-02-29T04:22:27.316Z,6.41
2024-02-29T04:23:30.122Z,6.39
2024-02-29T04:24:32.824Z,6.39
2024-02-29T04:25:35.703Z,6.40
2024-02-29T04:26:38.656Z,6.37
2024-02-29T04:27:41.586Z,6.39
2024-02-29T04:28:44.700Z,6.37
2024-02-29T04:29:47.881Z,6.36
2024-02-29T04:30:50.546Z,6.34
2024-02-29T04:31:53.364Z,6.36
2024-02-29T04:32:57.075Z,6.36
2024-02-29T04:33:59.826Z,6.40
2024-02-29T04:35:02.678Z,6.40
2024-02-29T04:36:06.572Z,6.42
2024-02-29T04:37:09.611Z,6.42
2024-02-29T04:38:12.922Z,6.45
2024-02-29T04:39:15.597Z,6.44
2024-02-29T04:40:18.343Z,6.43
2024-02-29T04:41:20.911Z,6.42
2024-02-29T04:42:23.746Z,6.39
2024-02-29T04:43:27.409Z,6.35
2024-02-29T04:44:30.051Z,6.32
2024-02-29T04:45:32.731Z,6.28
2024-02-29T04:46:35.365Z,6.25
2024-02-29T04:47:38.040Z,6.21
2024-02-29T04:48:41.004Z,6.18
2024-02-29T04:49:44.781Z,6.23
2024-02-29T04:50:47.751Z,6.27
2024-02-29T04:51:50.773Z,6.26
2024-02-29T04:52:53.631Z,6.14
2024-02-29T04:53:56.578Z,6.22
2024-02-29T04:54:59.872Z,6.22
2024-02-29T04:56:02.688Z,6.24
2024-02-29T04:57:05.517Z,6.23
2024-02-29T04:58:08.485Z,6.25
2024-02-29T04:59:11.541Z,6.18
2024-02-29T05:00:14.858Z,6.25
2024-02-29T05:01:18.385Z,6.27
2024-02-29T05:02:21.396Z,6.28
2024-02-29T05:03:25.006Z,6.29
2024-02-29T05:04:28.073Z,6.31
2024-02-29T05:05:30.924Z,6.30
2024-02-29T05:06:33.701Z,6.31
2024-02-29T05:07:36.521Z,6.22
2024-02-29T05:08:39.368Z,6.28
2024-02-29T05:09:42.551Z,6.28
2024-02-29T05:10:45.453Z,6.28
2024-02-29T05:11:48.298Z,6.29
2024-02-29T05:12:54.524Z,6.27
2024-02-29T05:13:59.045Z,6.25
2024-02-29T05:15:02.235Z,6.26
2024-02-29T05:16:06.247Z,6.28
2024-02-29T05:17:08.906Z,6.27
2024-02-29T05:18:12.049Z,6.24
2024-02-29T05:19:15.466Z,6.23
2024-02-29T05:20:18.651Z,6.16
2024-02-29T05:21:21.585Z,6.22
2024-02-29T05:22:24.192Z,6.19
2024-02-29T05:23:26.791Z,6.21
2024-02-29T05:24:29.427Z,6.26
2024-02-29T05:25:32.435Z,6.26
2024-02-29T05:26:35.045Z,6.27
2024-02-29T05:27:38.382Z,6.20
2024-02-29T05:28:41.163Z,6.28
2024-02-29T05:29:43.841Z,6.28
2024-02-29T05:30:46.754Z,6.26
2024-02-29T05:31:54.220Z,6.28
2024-02-29T05:32:59.735Z,6.22
2024-02-29T05:34:02.667Z,6.31
2024-02-29T05:35:06.496Z,6.33
2024-02-29T05:36:10.516Z,6.38
2024-02-29T05:37:13.314Z,6.42
2024-02-29T05:38:16.332Z,6.46
2024-02-29T05:39:19.431Z,6.45
2024-02-29T05:40:22.385Z,6.47
2024-02-29T05:41:25.353Z,6.53
2024-02-29T05:42:29.599Z,6.58
2024-02-29T05:43:35.715Z,6.77
2024-02-29T05:44:39.274Z,6.84
2024-02-29T05:45:42.316Z,6.92
2024-02-29T05:46:45.221Z,6.93
2024-02-29T05:47:49.089Z,6.75
2024-02-29T05:48:51.749Z,6.89
2024-02-29T05:49:54.396Z,6.95
2024-02-29T05:50:58.880Z,6.92
2024-02-29T05:52:04.342Z,6.90
2024-02-29T05:53:07.297Z,6.91
2024-02-29T05:54:09.921Z,6.92
2024-02-29T05:55:13.105Z,6.94
2024-02-29T05:56:16.172Z,6.98
2024-02-29T05:57:19.713Z,7.05
2024-02-29T05:58:22.649Z,7.07
2024-02-29T05:59:26.070Z,7.12
2024-02-29T06:00:29.343Z,7.19
2024-02-29T06:01:32.644Z,7.28
2024-02-29T06:02:35.722Z,7.38
2024-02-29T06:03:39.038Z,7.51
2024-02-29T06:04:41.861Z,7.58
2024-02-29T06:05:45.070Z,7.68
2024-02-29T06:06:48.971Z,7.72
2024-02-29T06:07:51.704Z,7.76
2024-02-29T06:08:54.496Z,7.70
2024-02-29T06:09:57.517Z,7.70
2024-02-29T06:11:00.411Z,7.69
2024-02-29T06:12:03.726Z,7.73
2024-02-29T06:13:06.667Z,7.68
2024-02-29T06:14:10.795Z,7.72
2024-02-29T06:15:13.758Z,7.71
2024-02-29T06:16:19.693Z,7.70
2024-02-29T06:17:23.156Z,7.72
2024-02-29T06:18:28.422Z,7.66
2024-02-29T06:19:31.891Z,7.67
2024-02-29T06:20:34.932Z,7.69
2024-02-29T06:21:37.646Z,7.71
2024-02-29T06:22:41.262Z,7.73
2024-02-29T06:23:43.956Z,7.80
2024-02-29T06:24:47.158Z,7.89
2024-02-29T06:25:51.808Z,7.96
2024-02-29T06:26:54.482Z,8.08
2024-02-29T06:27:58.299Z,8.18
2024-02-29T06:29:01.436Z,8.22
2024-02-29T06:30:05.510Z,8.18
2024-02-29T06:31:11.554Z,8.30
2024-02-29T06:32:17.414Z,8.40
2024-02-29T06:33:20.598Z,8.52
2024-02-29T06:34:23.549Z,8.65
2024-02-29T06:35:26.520Z,8.80
2024-02-29T06:36:29.426Z,8.97
2024-02-29T06:37:32.424Z,9.13
2024-02-29T06:38:35.371Z,9.32
2024-02-29T06:39:38.339Z,9.43
2024-02-29T06:40:41.233Z,9.58
2024-02-29T06:41:45.106Z,9.72
2024-02-29T06:42:49.259Z,9.82
2024-02-29T06:43:52.210Z,9.93
2024-02-29T06:44:54.840Z,10.03
2024-02-29T06:46:01.581Z,10.14
2024-02-29T06:47:04.418Z,10.22
2024-02-29T06:48:07.732Z,10.39
2024-02-29T06:49:11.079Z,10.47
2024-02-29T06:50:18.368Z,10.70
2024-02-29T06:51:21.276Z,10.84
2024-02-29T06:52:24.197Z,11.10
2024-02-29T06:53:27.039Z,11.04
2024-02-29T06:54:30.075Z,11.22
2024-02-29T06:55:38.809Z,11.36
2024-02-29T06:56:41.522Z,11.43
2024-02-29T06:57:44.245Z,11.71
2024-02-29T06:58:48.212Z,11.75
2024-02-29T06:59:53.635Z,11.78
2024-02-29T07:00:57.679Z,11.85
2024-02-29T07:02:00.554Z,11.84
2024-02-29T07:03:03.773Z,11.79
2024-02-29T07:04:08.543Z,11.90
2024-02-29T07:05:11.588Z,11.86
2024-02-29T07:06:14.985Z,11.98
2024-02-29T07:07:18.124Z,11.96
2024-02-29T07:08:21.341Z,12.14
2024-02-29T07:09:23.945Z,12.05
2024-02-29T07:10:27.052Z,12.08
2024-02-29T07:11:31.907Z,12.21
2024-02-29T07:12:34.680Z,12.27
2024-02-29T07:13:37.648Z,12.46
2024-02-29T07:14:40.647Z,12.48
2024-02-29T07:15:43.921Z,12.57
2024-02-29T07:16:47.894Z,12.36
2024-02-29T07:17:50.951Z,12.73
2024-02-29T07:18:53.758Z,12.84
2024-02-29T07:19:57.270Z,12.96
2024-02-29T07:21:00.488Z,12.93
2024-02-29T07:22:03.828Z,13.02
2024-02-29T07:23:07.439Z,13.06
2024-02-29T07:24:10.112Z,13.16
2024-02-29T07:25:13.984Z,13.20
2024-02-29T07:26:17.018Z,13.02
2024-02-29T07:27:19.972Z,13.04
2024-02-29T07:28:22.738Z,13.31
2024-02-29T07:29:25.689Z,13.40
2024-02-29T07:30:28.990Z,13.29
2024-02-29T07:31:31.871Z,13.37
2024-02-29T07:32:34.509Z,13.30
2024-02-29T07:33:38.578Z,13.30
2024-02-29T07:34:41.663Z,13.32
2024-02-29T07:35:44.246Z,13.36
2024-02-29T07:36:47.301Z,13.27
2024-02-29T07:37:52.335Z,13.33
2024-02-29T07:38:56.836Z,13.34
2024-02-29T07:39:59.725Z,13.42
2024-02-29T07:41:02.532Z,13.45
2024-02-29T07:42:05.632Z,13.38
2024-02-29T07:43:10.259Z,13.11
2024-02-29T07:44:13.926Z,13.51
2024-02-29T07:45:21.073Z,13.53
2024-02-29T07:46:24.234Z,13.52
2024-02-29T07:47:27.507Z,13.45
2024-02-29T07:48:30.908Z,13.58
2024-02-29T07:49:33.959Z,13.67
2024-02-29T07:50:36.592Z,13.72
2024-02-29T07:51:39.254Z,13.81
2024-02-29T07:52:42.438Z,13.77
2024-02-29T07:53:45.536Z,13.67
2024-02-29T07:54:49.687Z,13.80
2024-02-29T07:55:52.284Z,13.89
2024-02-29T07:56:54.982Z,13.86
2024-02-29T07:57:58.869Z,14.01
2024-02-29T07:59:01.568Z,13.96
2024-02-29T08:00:05.522Z,14.03
2024-02-29T08:01:14.324Z,14.09
2024-02-29T08:02:18.403Z,14.01
2024-02-29T08:03:22.206Z,13.76
2024-02-29T08:04:24.974Z,14.31
2024-02-29T08:05:28.094Z,14.32
2024-02-29T08:06:31.191Z,14.31
2024-02-29T08:07:34.452Z,14.48
2024-02-29T08:08:37.134Z,14.51
2024-02-29T08:09:40.907Z,14.55
2024-02-29T08:10:44.385Z,14.45
2024-02-29T08:11:47.392Z,14.53
2024-02-29T08:12:50.591Z,14.57
2024-02-29T08:13:54.404Z,14.62
2024-02-29T08:14:59.980Z,14.62
2024-02-29T08:16:04.318Z,14.75
2024-02-29T08:17:07.305Z,14.64
2024-02-29T08:18:10.588Z,14.64
2024-02-29T08:19:13.772Z,14.68
2024-02-29T08:20:17.426Z,14.66
2024-02-29T08:21:20.422Z,14.83
2024-02-29T08:22:23.447Z,14.84
2024-02-29T08:23:26.661Z,14.81
2024-02-29T08:24:29.683Z,14.84
2024-02-29T08:25:32.765Z,14.92
2024-02-29T08:26:35.797Z,15.02
2024-02-29T08:27:38.826Z,15.07
2024-02-29T08:28:43.609Z,15.02
2024-02-29T08:29:46.642Z,15.11
2024-02-29T08:30:49.642Z,15.00
2024-02-29T08:31:52.339Z,15.09
2024-02-29T08:32:54.994Z,15.22
2024-02-29T08:33:58.318Z,15.13
2024-02-29T08:35:01.283Z,15.19
2024-02-29T08:36:04.448Z,15.23
2024-02-29T08:37:07.258Z,14.99
2024-02-29T08:38:10.058Z,15.05
2024-02-29T08:39:13.147Z,15.23
2024-02-29T08:40:15.957Z,15.18
2024-02-29T08:41:21.663Z,14.99
2024-02-29T08:42:24.343Z,14.78
2024-02-29T08:43:27.028Z,14.89
2024-02-29T08:44:29.951Z,14.94
2024-02-29T08:45:32.643Z,14.84
2024-02-29T08:46:36.301Z,14.31
2024-02-29T08:47:39.344Z,14.48
2024-02-29T08:48:44.170Z,14.29
2024-02-29T08:49:47.455Z,14.43
2024-02-29T08:50:50.602Z,14.53
2024-02-29T08:51:53.432Z,14.56
2024-02-29T08:52:56.721Z,14.36
2024-02-29T08:53:59.441Z,14.37
2024-02-29T08:55:02.903Z,14.22
2024-02-29T08:56:05.716Z,14.14
2024-02-29T08:57:09.179Z,14.07
2024-02-29T08:58:12.065Z,13.99
2024-02-29T08:59:17.115Z,14.03
2024-02-29T09:00:21.752Z,14.01
2024-02-29T09:01:24.524Z,14.00
2024-02-29T09:02:27.322Z,13.98
2024-02-29T09:03:30.254Z,13.96
2024-02-29T09:04:33.252Z,13.89
2024-02-29T09:05:36.541Z,13.85
2024-02-29T09:06:41.861Z,13.80
2024-02-29T09:07:47.084Z,13.82
2024-02-29T09:08:49.830Z,13.85
2024-02-29T09:09:52.642Z,13.88
2024-02-29T09:10:57.404Z,14.00
2024-02-29T09:12:00.172Z,14.04
2024-02-29T09:13:20.074Z,14.05
2024-02-29T09:14:29.931Z,13.97
2024-02-29T09:15:33.328Z,13.96
2024-02-29T09:16:37.046Z,13.94
2024-02-29T09:17:40.051Z,13.88
2024-02-29T09:18:42.751Z,13.87
2024-02-29T09:19:45.697Z,13.87
2024-02-29T09:20:49.294Z,13.85
2024-02-29T09:21:52.592Z,13.87
2024-02-29T09:22:55.659Z,13.85
2024-02-29T09:23:59.013Z,13.74
2024-02-29T09:25:02.103Z,13.75
2024-02-29T09:26:04.982Z,13.72
2024-02-29T09:27:08.052Z,13.72
2024-02-29T09:28:10.918Z,13.74
2024-02-29T09:29:13.587Z,13.73
2024-02-29T09:30:16.351Z,13.81
2024-02-29T09:31:19.813Z,13.89
2024-02-29T09:32:23.135Z,13.86
2024-02-29T09:33:26.745Z,13.95
2024-02-29T09:34:30.067Z,14.11
2024-02-29T09:35:32.824Z,14.08
2024-02-29T09:36:36.519Z,14.14
2024-02-29T09:37:39.699Z,14.19
2024-02-29T09:38:42.751Z,14.16
2024-02-29T09:39:45.762Z,14.13
2024-02-29T09:40:52.577Z,14.15
2024-02-29T09:42:12.664Z,14.26
2024-02-29T09:43:18.832Z,14.20
2024-02-29T09:44:22.145Z,14.40
2024-02-29T09:45:26.020Z,14.36
2024-02-29T09:46:29.072Z,14.46
2024-02-29T09:47:36.348Z,14.53
2024-02-29T09:48:42.688Z,14.45
2024-02-29T09:49:49.258Z,14.47
2024-02-29T09:50:55.796Z,14.49
2024-02-29T09:52:00.239Z,14.43
2024-02-29T09:53:03.390Z,14.44
2024-02-29T09:54:07.868Z,14.38
2024-02-29T09:55:15.362Z,14.44
2024-02-29T09:56:23.905Z,14.39
2024-02-29T09:57:27.005Z,14.31
2024-02-29T09:58:32.300Z,14.28
2024-02-29T09:59:35.654Z,14.26
2024-02-29T10:00:39.841Z,14.31
2024-02-29T10:01:50.534Z,14.34
2024-02-29T10:02:55.909Z,14.43
2024-02-29T10:04:00.855Z,14.57
2024-02-29T10:05:04.249Z,14.63
2024-02-29T10:06:10.891Z,14.79
2024-02-29T10:07:15.881Z,14.64
2024-02-29T10:08:19.322Z,14.63
2024-02-29T10:09:22.570Z,14.77
2024-02-29T10:10:25.694Z,14.75
2024-02-29T10:11:29.768Z,14.58
2024-02-29T10:12:33.202Z,14.54
2024-02-29T10:13:40.350Z,14.66
2024-02-29T10:14:43.378Z,14.64
2024-02-29T10:15:46.336Z,14.46
2024-02-29T10:16:53.112Z,14.67
2024-02-29T10:17:57.033Z,14.64
2024-02-29T10:19:02.202Z,14.70
2024-02-29T10:20:13.849Z,14.69
2024-02-29T10:21:16.824Z,14.75
2024-02-29T10:22:23.172Z,14.77
2024-02-29T10:23:30.313Z,14.75
2024-02-29T10:24:33.272Z,14.78
2024-02-29T10:25:38.056Z,14.77
2024-02-29T10:26:41.155Z,14.80
2024-02-29T10:27:43.945Z,14.70
2024-02-29T10:28:46.831Z,14.74
2024-02-29T10:29:50.758Z,14.71
2024-02-29T10:30:55.786Z,14.64
2024-02-29T10:32:00.210Z,14.53
2024-02-29T10:33:03.447Z,14.57
2024-02-29T10:34:10.033Z,14.69
2024-02-29T10:35:27.072Z,14.82
2024-02-29T10:36:32.640Z,15.02
2024-02-29T10:37:38.491Z,15.14
2024-02-29T10:38:41.202Z,15.37
2024-02-29T10:39:44.550Z,15.53
2024-02-29T10:40:50.664Z,15.68
2024-02-29T10:41:56.961Z,15.71
2024-02-29T10:43:03.051Z,15.68
2024-02-29T10:44:09.165Z,15.71
2024-02-29T10:45:17.047Z,15.71
2024-02-29T10:46:25.994Z,15.70
2024-02-29T10:47:34.415Z,15.59
2024-02-29T10:48:56.386Z,15.62
2024-02-29T10:50:09.407Z,15.72
2024-02-29T10:51:30.542Z,15.88
2024-02-29T10:52:39.768Z,15.77
2024-02-29T10:53:57.720Z,15.93
2024-02-29T10:55:09.894Z,15.84
2024-02-29T10:56:22.959Z,15.84
2024-02-29T10:57:39.618Z,15.83
2024-02-29T10:58:45.274Z,15.84
2024-02-29T10:59:53.505Z,15.83
2024-02-29T11:00:56.254Z,15.94
2024-02-29T11:02:00.832Z,15.90
2024-02-29T11:03:05.283Z,15.89
2024-02-29T11:04:08.552Z,15.89
2024-02-29T11:05:12.529Z,15.82
2024-02-29T11:06:16.094Z,15.78
2024-02-29T11:07:20.495Z,15.89
2024-02-29T11:08:24.073Z,15.93
2024-02-29T11:09:29.506Z,15.93
2024-02-29T11:10:32.540Z,15.62
2024-02-29T11:11:35.568Z,15.53
2024-02-29T11:12:41.541Z,15.59
2024-02-29T11:13:44.369Z,15.68
2024-02-29T11:14:50.516Z,15.72
2024-02-29T11:15:56.425Z,15.77
2024-02-29T11:17:03.113Z,15.83
2024-02-29T11:18:06.406Z,15.74
2024-02-29T11:19:14.189Z,15.73
2024-02-29T11:20:21.359Z,15.77
2024-02-29T11:21:29.891Z,15.81
2024-02-29T11:22:34.845Z,15.88
2024-02-29T11:23:40.609Z,15.95
2024-02-29T11:24:47.532Z,15.74
2024-02-29T11:25:52.422Z,15.75
2024-02-29T11:26:59.669Z,15.72
2024-02-29T11:28:05.286Z,15.75
2024-02-29T11:29:20.730Z,15.77
2024-02-29T11:30:27.808Z,15.78
2024-02-29T11:31:30.578Z,15.86
2024-02-29T11:32:35.208Z,15.71
2024-02-29T11:33:38.445Z,15.49
2024-02-29T11:34:41.681Z,15.74
2024-02-29T11:35:45.437Z,15.72
2024-02-29T11:36:50.336Z,15.74
2024-02-29T11:37:54.782Z,15.80
2024-02-29T11:39:01.419Z,15.95
2024-02-29T11:40:09.092Z,15.94
2024-02-29T11:41:19.270Z,15.94
2024-02-29T11:42:25.556Z,15.91
2024-02-29T11:43:30.458Z,15.91
2024-02-29T11:44:37.198Z,15.98
2024-02-29T11:45:40.796Z,15.98
2024-02-29T11:46:51.214Z,15.90
2024-02-29T11:47:54.088Z,15.99
2024-02-29T11:48:57.871Z,16.02
2024-02-29T11:50:01.649Z,16.07
2024-02-29T11:51:05.198Z,16.05
2024-02-29T11:52:08.068Z,15.98
2024-02-29T11:53:10.783Z,15.96
2024-02-29T11:54:17.396Z,15.91
2024-02-29T11:55:20.527Z,15.89
2024-02-29T11:56:23.767Z,15.85
2024-02-29T11:57:27.274Z,15.80
2024-02-29T11:58:30.296Z,15.86
2024-02-29T11:59:32.988Z,15.89
2024-02-29T12:00:35.605Z,15.90
2024-02-29T12:01:38.782Z,15.88
2024-02-29T12:02:45.113Z,15.94
2024-02-29T12:03:48.351Z,15.94
2024-02-29T12:04:51.284Z,15.89
2024-02-29T12:05:53.969Z,15.90
2024-02-29T12:06:57.199Z,15.86
2024-02-29T12:08:01.348Z,15.75
2024-02-29T12:09:07.551Z,15.79
2024-02-29T12:10:12.482Z,15.77
2024-02-29T12:11:16.672Z,15.82
2024-02-29T12:12:21.471Z,15.85
2024-02-29T12:13:24.266Z,15.86
2024-02-29T12:14:27.511Z,15.86
2024-02-29T12:15:30.312Z,15.87
2024-02-29T12:16:33.180Z,15.85
2024-02-29T12:17:36.148Z,15.83
2024-02-29T12:18:38.989Z,15.77
2024-02-29T12:19:42.058Z,15.79
2024-02-29T12:20:44.919Z,15.80
2024-02-29T12:21:47.640Z,15.79
2024-02-29T12:23:01.293Z,15.81
2024-02-29T12:24:06.102Z,15.78
2024-02-29T12:25:13.202Z,15.72
2024-02-29T12:26:17.518Z,15.83
2024-02-29T12:27:20.586Z,15.78
2024-02-29T12:28:23.698Z,15.75
2024-02-29T12:29:26.713Z,15.77
2024-02-29T12:30:29.606Z,15.71
2024-02-29T12:31:32.265Z,15.70
2024-02-29T12:32:35.152Z,15.57
2024-02-29T12:33:40.162Z,15.71
2024-02-29T12:34:46.264Z,15.69
2024-02-29T12:35:52.338Z,15.67
2024-02-29T12:36:57.721Z,15.77
2024-02-29T12:38:04.559Z,15.79
2024-02-29T12:39:10.926Z,15.71
2024-02-29T12:40:16.912Z,15.78
2024-02-29T12:41:19.710Z,15.81
2024-02-29T12:42:22.874Z,15.78
2024-02-29T12:43:25.767Z,15.78
2024-02-29T12:44:28.913Z,15.85
2024-02-29T12:45:31.578Z,15.83
2024-02-29T12:46:34.351Z,15.83
2024-02-29T12:47:37.824Z,15.86
2024-02-29T12:48:40.743Z,15.73
2024-02-29T12:49:44.266Z,15.80
2024-02-29T12:50:46.953Z,15.81
2024-02-29T12:51:50.920Z,15.68
2024-02-29T12:52:58.345Z,15.68
2024-02-29T12:54:01.129Z,15.75
2024-02-29T12:55:04.615Z,15.60
2024-02-29T12:56:07.561Z,15.64
2024-02-29T12:57:11.415Z,15.71
2024-02-29T12:58:15.878Z,15.71
2024-02-29T12:59:19.361Z,15.79
2024-02-29T13:00:27.385Z,15.49
2024-02-29T13:01:30.823Z,15.75
2024-02-29T13:02:33.619Z,15.67
2024-02-29T13:03:36.561Z,15.69
2024-02-29T13:04:39.571Z,15.65
2024-02-29T13:05:42.752Z,15.69
2024-02-29T13:06:45.811Z,15.69
2024-02-29T13:07:49.608Z,15.69
2024-02-29T13:08:52.781Z,15.58
2024-02-29T13:09:55.508Z,15.58
2024-02-29T13:10:58.416Z,15.65
2024-02-29T13:12:01.107Z,15.69
2024-02-29T13:13:10.378Z,15.72
2024-02-29T13:14:13.896Z,15.67
2024-02-29T13:15:16.622Z,15.73
2024-02-29T13:16:19.590Z,15.74
2024-02-29T13:17:22.302Z,15.73
2024-02-29T13:18:25.096Z,15.67
2024-02-29T13:19:27.807Z,15.68
2024-02-29T13:20:30.684Z,15.63
2024-02-29T13:21:34.042Z,15.62
2024-02-29T13:22:37.002Z,15.65
2024-02-29T13:23:39.904Z,15.63
2024-02-29T13:24:44.373Z,15.61
2024-02-29T13:25:47.264Z,15.65
2024-02-29T13:26:50.570Z,15.61
2024-02-29T13:27:53.967Z,15.54
2024-02-29T13:28:56.646Z,15.59
2024-02-29T13:29:59.721Z,15.60
2024-02-29T13:31:02.622Z,15.53
2024-02-29T13:32:05.932Z,15.55
2024-02-29T13:33:08.732Z,15.50
2024-02-29T13:34:11.565Z,15.52
2024-02-29T13:35:14.453Z,15.56
2024-02-29T13:36:17.202Z,15.51
2024-02-29T13:37:21.015Z,15.51
2024-02-29T13:38:24.017Z,15.50
2024-02-29T13:39:26.776Z,15.47
2024-02-29T13:40:30.313Z,15.34
2024-02-29T13:41:33.331Z,15.37
2024-02-29T13:42:36.498Z,15.34
2024-02-29T13:43:39.429Z,15.32
2024-02-29T13:44:44.373Z,15.33
2024-02-29T13:45:47.080Z,15.36
2024-02-29T13:46:49.767Z,15.40
2024-02-29T13:47:53.273Z,15.38
2024-02-29T13:49:20.018Z,15.38
2024-02-29T13:50:21.612Z,15.33
2024-02-29T13:51:24.862Z,15.29
2024-02-29T13:52:27.962Z,15.32
2024-02-29T13:53:30.966Z,15.27
2024-02-29T13:54:33.600Z,15.29
2024-02-29T13:55:37.760Z,15.33
2024-02-29T13:56:40.457Z,15.27